Time;durP1;ratioP1;P1;durP2;ratioP2;P2;SDS_P1;SDS_P2;PMS_P1;PMS_P2;Temp;Humidity;BMP_temperature;BMP_pressure;BME280_temperature;BME280_humidity;BME280_pressure;Samples;Min_cycle;Max_cycle;Signal;HPM_P1;HPM_P2
2022/07/31 00:00:13;;;;;;;7.32;5.93;;;;;;;18.71;68.81;101657.31;5025608;28;20041;-74
2022/07/31 00:02:38;;;;;;;8.02;6.63;;;;;;;18.71;66.79;101649.41;5028628;28;20033;-74
2022/07/31 00:05:05;;;;;;;7.53;6.07;;;;;;;18.73;68.32;101646.72;5031273;28;20044;-74
2022/07/31 00:07:30;;;;;;;9.65;6.40;;;;;;;18.74;67.06;101648.44;5030134;28;20035;-75
2022/07/31 00:09:55;;;;;;;8.05;6.45;;;;;;;18.75;66.63;101642.25;5029372;28;20025;-74
2022/07/31 00:12:21;;;;;;;8.75;6.50;;;;;;;18.74;66.69;101644.00;5028798;28;20116;-74
2022/07/31 00:14:47;;;;;;;8.15;6.25;;;;;;;18.74;67.98;101643.16;5027152;28;20044;-74
2022/07/31 00:17:12;;;;;;;7.03;6.32;;;;;;;18.73;66.75;101637.00;5026864;28;20032;-74
2022/07/31 00:19:38;;;;;;;9.55;6.70;;;;;;;18.71;66.51;101632.75;5028189;28;20100;-75
2022/07/31 00:22:03;;;;;;;10.32;6.85;;;;;;;18.71;67.04;101633.59;5029625;28;20392;-74
2022/07/31 00:24:29;;;;;;;9.65;6.50;;;;;;;18.71;70.16;101630.13;5027820;28;20037;-74
2022/07/31 00:26:55;;;;;;;9.50;6.53;;;;;;;18.68;67.43;101632.91;5024734;28;20029;-75
2022/07/31 00:29:20;;;;;;;8.20;6.30;;;;;;;18.67;67.17;101629.41;5027163;28;20108;-74
2022/07/31 00:31:45;;;;;;;10.10;6.55;;;;;;;18.65;67.24;101629.47;5028695;28;20112;-75
2022/07/31 00:34:11;;;;;;;8.20;6.35;;;;;;;18.65;67.39;101616.31;5029747;28;20021;-74
2022/07/31 00:36:36;;;;;;;7.93;6.45;;;;;;;18.64;67.22;101606.69;5029864;28;20318;-74
2022/07/31 00:39:02;;;;;;;8.52;6.63;;;;;;;18.63;67.38;101604.97;5029797;28;20767;-75
2022/07/31 00:41:42;;;;;;;8.63;6.40;;;;;;;18.65;67.10;101613.66;5028559;28;20036;-74
2022/07/31 00:44:09;;;;;;;7.85;6.78;;;;;;;18.64;67.54;101606.69;5028307;28;20035;-74
2022/07/31 00:46:35;;;;;;;8.93;7.03;;;;;;;18.62;69.27;101611.16;5030002;28;20022;-75
2022/07/31 00:49:00;;;;;;;9.15;6.93;;;;;;;18.60;68.94;101615.69;5029091;28;20021;-74
2022/07/31 00:51:26;;;;;;;8.48;7.28;;;;;;;18.59;68.26;101613.97;5028904;28;20021;-74
2022/07/31 00:53:51;;;;;;;8.00;6.93;;;;;;;18.57;70.88;101613.19;5028278;28;20031;-74
2022/07/31 00:56:16;;;;;;;10.23;7.10;;;;;;;18.57;70.37;101610.56;5028439;28;20025;-75
2022/07/31 00:58:41;;;;;;;8.27;7.45;;;;;;;18.54;68.72;101615.09;5029863;28;20029;-74
2022/07/31 01:01:07;;;;;;;8.60;7.05;;;;;;;18.51;68.97;101610.84;5029449;28;20418;-75
2022/07/31 01:03:32;;;;;;;8.65;7.47;;;;;;;18.50;69.71;101611.75;5028711;28;20021;-75
2022/07/31 01:05:57;;;;;;;7.88;6.90;;;;;;;18.48;70.10;101600.44;5027167;28;20557;-75
2022/07/31 01:08:22;;;;;;;9.98;7.38;;;;;;;18.48;70.17;101598.66;5027759;28;20037;-74
2022/07/31 01:11:01;;;;;;;10.30;7.10;;;;;;;18.46;70.83;101592.59;5029098;28;20059;-74
2022/07/31 01:13:34;;;;;;;9.27;7.22;;;;;;;18.44;71.40;101590.97;5025896;28;20430;-75
2022/07/31 01:16:00;;;;;;;8.23;7.35;;;;;;;18.42;69.96;101590.19;5028175;28;20029;-74
2022/07/31 01:18:30;;;;;;;10.98;7.95;;;;;;;18.42;70.76;101592.84;5028549;28;20055;-74
2022/07/31 01:20:59;;;;;;;9.25;7.45;;;;;;;18.41;71.54;101591.13;5027733;28;20033;-75
2022/07/31 01:23:34;;;;;;;11.38;7.90;;;;;;;18.41;70.57;101593.75;5028721;28;20055;-73
2022/07/31 01:26:08;;;;;;;11.45;7.50;;;;;;;18.39;71.13;101598.25;5028698;28;20070;-74
2022/07/31 01:29:24;;;;;;;8.63;7.30;;;;;;;18.41;69.52;101593.75;5026091;28;20029;-74
2022/07/31 01:32:04;;;;;;;9.48;7.03;;;;;;;18.39;70.29;101595.59;5004303;28;20424;-74
2022/07/31 01:34:53;;;;;;;8.30;7.40;;;;;;;18.38;70.21;101596.53;5028393;28;20048;-74
2022/07/31 01:37:34;;;;;;;8.45;7.05;;;;;;;18.34;70.20;101586.13;5028540;28;20041;-74
2022/07/31 01:40:02;;;;;;;;;;;;;;;18.41;68.44;101597.22;5028652;28;20036;-74
2022/07/31 01:42:29;;;;;;;8.20;6.53;;;;;;;18.32;68.82;101580.06;5028023;28;19921;-74
2022/07/31 01:44:58;;;;;;;10.23;6.90;;;;;;;18.31;68.74;101588.91;5028734;28;20029;-75
2022/07/31 01:47:26;;;;;;;10.10;7.18;;;;;;;18.30;68.50;101584.56;5026323;28;20036;-74
2022/07/31 01:49:54;;;;;;;7.85;7.05;;;;;;;18.30;68.85;101583.72;5028244;28;20477;-75
2022/07/31 01:52:24;;;;;;;10.10;7.50;;;;;;;18.30;68.69;101584.56;5028590;28;20104;-74
2022/07/31 01:54:50;;;;;;;11.40;7.03;;;;;;;18.30;68.46;101581.09;5027181;28;20116;-74
2022/07/31 01:57:17;;;;;;;9.30;7.50;;;;;;;18.28;68.32;101583.78;5025025;28;20102;-74
2022/07/31 01:59:44;;;;;;;8.80;7.57;;;;;;;18.30;68.37;101581.91;5027587;28;20029;-75
2022/07/31 02:02:11;;;;;;;9.10;7.85;;;;;;;18.30;68.20;101584.56;5024121;28;20025;-74
2022/07/31 02:04:37;;;;;;;9.93;7.20;;;;;;;18.29;67.97;101582.84;5027622;28;20029;-75
2022/07/31 02:07:03;;;;;;;8.93;7.13;;;;;;;18.30;68.23;101597.72;5027529;28;20499;-74
2022/07/31 02:09:31;;;;;;;7.60;6.70;;;;;;;18.30;67.73;101595.09;5028650;28;20378;-74
2022/07/31 02:11:58;;;;;;;8.10;6.78;;;;;;;18.30;67.85;101603.00;5030278;28;20017;-74
2022/07/31 02:14:23;;;;;;;8.98;7.07;;;;;;;18.29;67.37;101593.38;5028030;28;20029;-74
2022/07/31 02:16:49;;;;;;;10.05;7.00;;;;;;;18.30;67.42;101587.19;5027705;28;20495;-74
2022/07/31 02:19:15;;;;;;;9.07;6.85;;;;;;;18.29;67.47;101590.75;5029236;28;20025;-75
2022/07/31 02:21:41;;;;;;;8.90;6.88;;;;;;;18.28;67.58;101589.03;5026338;28;20076;-75
2022/07/31 02:24:07;;;;;;;10.00;6.95;;;;;;;18.27;67.05;101592.63;5027553;28;20488;-75
2022/07/31 02:26:33;;;;;;;7.95;6.80;;;;;;;18.26;67.85;101580.38;5026770;28;20037;-75
2022/07/31 02:28:59;;;;;;;8.82;6.90;;;;;;;18.25;67.38;101578.66;5026825;28;20063;-74
2022/07/31 02:31:26;;;;;;;11.55;7.15;;;;;;;18.26;67.52;101585.66;5026890;28;20119;-75
2022/07/31 02:33:52;;;;;;;10.02;6.45;;;;;;;18.26;67.19;101590.91;5026597;28;20036;-74
2022/07/31 02:36:19;;;;;;;8.52;6.85;;;;;;;18.26;67.09;101588.28;5028215;28;20029;-74
2022/07/31 02:38:47;;;;;;;8.23;6.45;;;;;;;18.25;66.16;101583.94;5033074;28;20100;-74
2022/07/31 02:41:15;;;;;;;8.40;6.43;;;;;;;18.25;66.59;101591.84;5047851;28;20033;-75
2022/07/31 02:43:41;;;;;;;11.20;6.32;;;;;;;18.25;66.26;101593.59;5030168;28;20025;-75
2022/07/31 02:46:08;;;;;;;14.43;6.05;;;;;;;18.24;66.00;101591.88;5032519;28;20087;-75
2022/07/31 02:48:34;;;;;;;9.27;5.72;;;;;;;18.23;65.64;101593.69;5024449;28;20026;-74
2022/07/31 02:50:59;;;;;;;9.68;5.97;;;;;;;18.22;65.73;101591.09;5032041;28;20079;-74
2022/07/31 02:53:25;;;;;;;7.55;5.82;;;;;;;18.21;65.63;101598.16;5031438;28;20029;-74
2022/07/31 02:55:51;;;;;;;9.95;5.95;;;;;;;18.19;65.32;101585.06;5029374;28;20427;-74
2022/07/31 02:58:17;;;;;;;8.98;5.90;;;;;;;18.19;65.29;101585.06;5028867;28;20063;-74
2022/07/31 03:00:42;;;;;;;8.15;5.82;;;;;;;18.18;64.99;101587.78;5030605;28;20993;-74
2022/07/31 03:03:07;;;;;;;7.43;5.80;;;;;;;18.17;66.38;101583.41;5032808;28;21789;-74
2022/07/31 03:05:33;;;;;;;9.90;5.70;;;;;;;18.16;64.98;101576.44;5031416;28;20026;-75
2022/07/31 03:07:58;;;;;;;8.70;5.60;;;;;;;18.13;65.40;101574.81;5029590;28;20045;-74
2022/07/31 03:10:24;;;;;;;10.98;6.07;;;;;;;18.13;65.61;101577.44;5032260;28;20025;-74
2022/07/31 03:12:53;;;;;;;9.45;6.07;;;;;;;18.12;65.74;101574.88;5033190;28;20029;-74
2022/07/31 03:15:21;;;;;;;9.32;5.85;;;;;;;18.12;65.49;101577.50;5030807;28;20025;-74
2022/07/31 03:17:47;;;;;;;12.57;6.18;;;;;;;18.10;65.77;101569.69;5027236;28;20053;-74
2022/07/31 03:20:14;;;;;;;11.73;6.75;;;;;;;18.09;66.23;101573.25;5029306;28;20103;-74
2022/07/31 03:22:40;;;;;;;11.30;6.85;;;;;;;18.05;67.08;101569.91;5031509;28;20029;-74
2022/07/31 03:25:06;;;;;;;9.65;7.35;;;;;;;18.04;66.71;101559.44;5030015;28;20025;-74
2022/07/31 03:27:32;;;;;;;11.82;6.85;;;;;;;18.02;67.40;101558.63;5030098;28;20037;-75
2022/07/31 03:29:57;;;;;;;12.05;6.68;;;;;;;17.99;67.47;101557.00;5031481;28;20067;-74
2022/07/31 03:32:23;;;;;;;10.50;6.82;;;;;;;17.97;67.26;101552.72;5028817;28;20026;-74
2022/07/31 03:34:48;;;;;;;9.68;6.63;;;;;;;17.93;66.93;101554.66;5030989;28;20045;-74
2022/07/31 03:37:13;;;;;;;10.20;6.43;;;;;;;17.93;67.64;101556.41;5030580;28;20049;-74
2022/07/31 03:39:39;;;;;;;12.98;6.32;;;;;;;17.91;67.91;101564.38;5030455;28;20429;-74
2022/07/31 03:42:07;;;;;;;15.15;7.13;;;;;;;17.89;68.21;101567.06;5030132;28;20027;-75
2022/07/31 03:44:34;;;;;;;12.60;7.15;;;;;;;17.87;68.76;101562.81;5032225;28;20119;-74
2022/07/31 03:47:00;;;;;;;13.32;7.10;;;;;;;17.85;69.04;101565.50;5030158;28;20022;-74
2022/07/31 03:49:26;;;;;;;11.02;6.53;;;;;;;17.82;69.30;101560.38;5027881;28;20026;-74
2022/07/31 03:51:52;;;;;;;11.25;6.68;;;;;;;17.80;69.37;101564.00;5031717;28;20056;-74
2022/07/31 03:54:18;;;;;;;8.32;7.00;;;;;;;17.78;68.50;101560.56;5030568;28;20477;-74
2022/07/31 03:56:47;;;;;;;10.23;7.03;;;;;;;17.77;69.31;101556.22;5030320;28;20495;-74
2022/07/31 03:59:13;;;;;;;8.80;7.50;;;;;;;17.73;69.50;101558.16;5029409;28;20368;-74
2022/07/31 04:01:39;;;;;;;14.00;7.40;;;;;;;17.70;69.31;101556.53;5028499;28;20045;-74
2022/07/31 04:04:04;;;;;;;15.43;7.93;;;;;;;17.66;70.08;101568.09;5032179;28;20496;-74
2022/07/31 04:06:29;;;;;;;11.43;7.88;;;;;;;17.63;70.05;101565.59;5031164;28;20029;-74
2022/07/31 04:08:55;;;;;;;11.05;7.30;;;;;;;17.61;70.16;101562.16;5029696;28;20026;-74
2022/07/31 04:11:20;;;;;;;10.50;7.50;;;;;;;17.59;70.26;101562.25;5031789;28;20021;-75
2022/07/31 04:13:45;;;;;;;11.05;7.88;;;;;;;17.58;70.31;101568.44;5027492;28;20059;-75
2022/07/31 04:16:10;;;;;;;13.02;7.60;;;;;;;17.58;70.61;101573.69;5028952;28;20025;-74
2022/07/31 04:18:36;;;;;;;13.98;7.65;;;;;;;17.57;70.37;101571.16;5030686;28;20029;-74
2022/07/31 04:21:01;;;;;;;11.70;8.23;;;;;;;17.57;70.83;101574.63;5027047;28;20029;-74
2022/07/31 04:23:26;;;;;;;10.30;7.35;;;;;;;17.56;70.58;101574.69;5029843;28;20033;-74
2022/07/31 04:25:51;;;;;;;11.63;7.28;;;;;;;17.57;71.38;101574.63;5029292;28;20025;-74
2022/07/31 04:28:17;;;;;;;11.48;7.30;;;;;;;17.58;70.83;101578.13;5030009;28;20021;-74
2022/07/31 04:30:42;;;;;;;10.23;7.25;;;;;;;17.57;71.02;101573.78;5026896;28;20021;-74
2022/07/31 04:33:08;;;;;;;10.48;7.20;;;;;;;17.57;71.26;101571.16;5027728;28;20052;-74
2022/07/31 04:35:33;;;;;;;9.30;7.55;;;;;;;17.57;70.93;101571.16;5031003;28;20558;-74
2022/07/31 04:37:58;;;;;;;10.68;7.03;;;;;;;17.56;71.11;101572.06;5030006;28;20080;-74
2022/07/31 04:40:26;;;;;;;8.63;7.57;;;;;;;17.57;70.95;101576.41;5030198;28;20022;-74
2022/07/31 04:42:51;;;;;;;10.43;7.28;;;;;;;17.58;70.95;101576.34;5026954;28;20032;-74
2022/07/31 04:45:17;;;;;;;10.02;6.97;;;;;;;17.60;70.60;101582.38;5027009;28;20380;-74
2022/07/31 04:47:42;;;;;;;11.15;7.75;;;;;;;17.60;70.56;101584.16;5027124;28;20468;-74
2022/07/31 04:50:08;;;;;;;7.88;6.57;;;;;;;17.62;70.90;101579.66;5026853;28;20029;-74
2022/07/31 04:52:33;;;;;;;12.32;7.72;;;;;;;17.62;70.24;101573.56;5031257;28;20116;-75
2022/07/31 04:54:59;;;;;;;10.63;7.80;;;;;;;17.62;70.77;101574.41;5028368;28;20542;-74
2022/07/31 04:57:24;;;;;;;10.18;7.60;;;;;;;17.64;70.25;101567.31;5026776;28;20481;-74
2022/07/31 04:59:50;;;;;;;9.18;7.35;;;;;;;17.68;70.45;101573.28;5025896;28;20025;-74
2022/07/31 05:02:15;;;;;;;9.60;7.20;;;;;;;17.69;70.75;101575.00;5027144;28;20029;-74
2022/07/31 05:04:40;;;;;;;9.00;7.25;;;;;;;17.70;70.62;101572.31;5026482;28;20084;-75
2022/07/31 05:07:05;;;;;;;10.23;7.18;;;;;;;17.71;70.56;101571.38;5028272;28;20025;-74
2022/07/31 05:09:34;;;;;;;9.52;7.00;;;;;;;17.73;70.78;101573.94;5028598;28;20140;-74
2022/07/31 05:11:59;;;;;;;11.18;7.28;;;;;;;17.73;70.12;101580.06;5028984;28;20030;-74
2022/07/31 05:14:24;;;;;;;8.23;6.60;;;;;;;17.74;70.30;101573.88;5027272;28;20032;-74
2022/07/31 05:16:50;;;;;;;8.63;6.60;;;;;;;17.73;70.53;101566.91;5026483;28;20037;-74
2022/07/31 05:19:15;;;;;;;8.27;6.40;;;;;;;17.75;71.13;101566.84;5027001;28;20017;-74
2022/07/31 05:21:43;;;;;;;8.48;6.28;;;;;;;17.73;70.73;101564.28;5023073;28;20411;-74
2022/07/31 05:24:08;;;;;;;9.68;6.15;;;;;;;17.74;70.94;101568.63;5022985;28;20036;-74
2022/07/31 05:26:33;;;;;;;7.40;5.93;;;;;;;17.74;71.42;101573.88;5024477;28;20041;-74
2022/07/31 05:28:59;;;;;;;9.27;6.18;;;;;;;17.77;71.79;101566.75;5040335;28;20037;-74
2022/07/31 05:31:26;;;;;;;8.43;5.57;;;;;;;17.76;71.41;101563.28;5021930;28;21336;-74
2022/07/31 05:33:52;;;;;;;9.23;6.15;;;;;;;17.77;72.04;101556.22;5022541;28;20079;-74
2022/07/31 05:36:18;;;;;;;7.72;5.68;;;;;;;17.79;72.06;101557.03;5022651;28;20484;-74
2022/07/31 05:38:43;;;;;;;8.48;5.95;;;;;;;17.79;72.95;101547.34;5027628;28;20484;-73
2022/07/31 05:41:09;;;;;;;11.60;5.95;;;;;;;17.83;73.12;101546.31;5024705;28;20026;-74
2022/07/31 05:43:34;;;;;;;10.30;5.68;;;;;;;17.84;73.85;101539.25;5025660;28;20025;-75
2022/07/31 05:46:01;;;;;;;7.18;5.00;;;;;;;17.85;72.96;101541.81;5026939;28;20037;-74
2022/07/31 05:48:26;;;;;;;8.68;5.50;;;;;;;17.86;73.68;101545.31;5027538;28;20060;-74
2022/07/31 05:50:51;;;;;;;9.50;5.60;;;;;;;17.90;73.57;101552.16;5025078;28;20056;-74
2022/07/31 05:53:17;;;;;;;8.30;5.00;;;;;;;17.89;73.52;101551.28;5025327;28;20532;-74
2022/07/31 05:55:44;;;;;;;9.32;5.30;;;;;;;17.91;73.48;101553.84;5026650;28;20440;-74
2022/07/31 05:58:10;;;;;;;8.50;5.15;;;;;;;17.91;73.19;101551.22;5027517;28;20411;-74
2022/07/31 06:00:36;;;;;;;6.95;4.93;;;;;;;17.94;73.43;101560.75;5024911;28;20025;-74
2022/07/31 06:03:02;;;;;;;7.15;4.65;;;;;;;17.95;74.10;101555.41;5023476;28;20033;-74
2022/07/31 06:05:31;;;;;;;7.20;4.45;;;;;;;17.97;73.65;101552.72;5025629;28;20037;-74
2022/07/31 06:07:57;;;;;;;7.70;4.68;;;;;;;17.97;73.77;101553.56;5029351;28;20029;-74
2022/07/31 06:10:23;;;;;;;7.05;4.38;;;;;;;17.98;73.49;101557.09;5026819;28;20060;-74
2022/07/31 06:12:49;;;;;;;7.65;4.30;;;;;;;17.99;74.06;101556.16;5030589;28;20033;-74
2022/07/31 06:15:14;;;;;;;6.90;4.50;;;;;;;17.98;73.73;101560.56;5031371;28;20032;-74
2022/07/31 06:17:41;;;;;;;6.10;4.10;;;;;;;18.01;73.85;101563.06;5033854;28;20377;-74
2022/07/31 06:20:07;;;;;;;6.65;3.80;;;;;;;18.03;73.97;101568.25;5029872;28;20036;-74
2022/07/31 06:22:32;;;;;;;5.65;3.92;;;;;;;18.07;74.10;101566.34;5036077;28;20143;-74
2022/07/31 06:24:57;;;;;;;5.47;3.88;;;;;;;18.07;73.85;101563.72;5035107;28;20033;-74
2022/07/31 06:27:23;;;;;;;6.07;3.78;;;;;;;18.09;74.38;101556.59;5025933;28;20028;-74
2022/07/31 06:29:48;;;;;;;4.95;3.65;;;;;;;18.12;74.45;101557.31;5027816;28;20025;-74
2022/07/31 06:32:13;;;;;;;5.15;3.60;;;;;;;18.15;74.01;101561.56;5030214;28;20073;-74
2022/07/31 06:34:39;;;;;;;6.05;3.45;;;;;;;18.19;73.60;101555.25;5028532;28;20395;-74
2022/07/31 06:37:05;;;;;;;5.97;2.95;;;;;;;18.22;74.33;101557.75;5032363;28;20076;-75
2022/07/31 06:39:30;;;;;;;4.88;3.15;;;;;;;18.27;74.13;101561.03;5034809;28;20021;-74
2022/07/31 06:41:56;;;;;;;5.60;3.33;;;;;;;18.31;74.00;101561.72;5032783;28;20116;-75
2022/07/31 06:44:21;;;;;;;4.47;3.35;;;;;;;18.35;74.24;101552.75;5028420;28;20029;-74
2022/07/31 06:46:48;;;;;;;6.93;3.60;;;;;;;18.40;74.11;101552.53;5029298;28;20107;-74
2022/07/31 06:49:13;;;;;;;5.78;3.47;;;;;;;18.45;74.21;101554.00;5031291;28;20090;-74
2022/07/31 06:51:38;;;;;;;5.85;3.30;;;;;;;18.48;73.65;101556.50;5032976;28;20029;-74
2022/07/31 06:54:06;;;;;;;4.07;3.03;;;;;;;18.50;73.47;101556.41;5035798;28;20076;-77
2022/07/31 06:56:32;;;;;;;5.15;3.03;;;;;;;18.49;73.30;101555.59;5030062;28;20061;-74
2022/07/31 06:58:58;;;;;;;7.13;3.30;;;;;;;18.52;73.94;101546.66;5037434;28;20025;-74
2022/07/31 07:01:24;;;;;;;5.20;3.45;;;;;;;18.53;74.37;101550.19;5031637;28;20044;-75
2022/07/31 07:03:49;;;;;;;5.63;3.42;;;;;;;18.56;74.56;101556.13;5035058;28;20033;-75
2022/07/31 07:06:15;;;;;;;5.97;3.65;;;;;;;18.59;73.65;101557.75;5031180;28;20140;-75
2022/07/31 07:08:40;;;;;;;4.63;3.45;;;;;;;18.61;73.61;101554.16;5028137;28;20038;-75
2022/07/31 07:11:05;;;;;;;4.90;3.63;;;;;;;18.64;73.41;101553.97;5029754;28;20663;-74
2022/07/31 07:13:31;;;;;;;3.95;3.25;;;;;;;18.69;73.75;101552.91;5030260;28;20040;-74
2022/07/31 07:15:56;;;;;;;5.30;3.90;;;;;;;18.73;73.62;101554.47;5029533;28;20090;-73
2022/07/31 07:18:21;;;;;;;5.45;4.10;;;;;;;18.78;73.75;101555.09;5026269;28;20048;-75
2022/07/31 07:20:48;;;;;;;7.95;4.60;;;;;;;18.83;73.51;101557.50;5033265;28;20121;-74
2022/07/31 07:23:13;;;;;;;9.40;4.45;;;;;;;18.85;73.49;101555.66;5035814;28;20467;-75
2022/07/31 07:25:39;;;;;;;8.52;4.32;;;;;;;18.87;73.58;101549.38;5031760;28;20041;-75
2022/07/31 07:28:05;;;;;;;8.02;5.10;;;;;;;18.88;73.33;101545.81;5037075;28;20034;-76
2022/07/31 07:30:31;;;;;;;6.35;4.43;;;;;;;18.88;73.22;101544.94;5031665;28;20090;-75
2022/07/31 07:32:56;;;;;;;7.63;4.93;;;;;;;18.91;73.64;101547.41;5033738;28;20033;-75
2022/07/31 07:35:21;;;;;;;7.30;4.88;;;;;;;18.91;73.32;101539.50;5037191;28;20067;-75
2022/07/31 07:37:47;;;;;;;7.82;4.65;;;;;;;18.94;73.32;101542.00;5039802;28;20063;-75
2022/07/31 07:40:13;;;;;;;8.00;4.75;;;;;;;18.98;73.33;101546.22;5039739;28;20029;-75
2022/07/31 07:42:39;;;;;;;7.60;4.85;;;;;;;19.04;74.26;101535.38;5041881;28;20392;-75
2022/07/31 07:45:05;;;;;;;7.20;4.82;;;;;;;19.08;73.15;101541.34;5039943;28;20031;-74
2022/07/31 07:47:30;;;;;;;8.32;5.00;;;;;;;19.13;73.41;101543.75;5035840;28;20488;-73
2022/07/31 07:49:56;;;;;;;8.77;4.85;;;;;;;19.18;73.37;101539.94;5038165;28;20068;-73
2022/07/31 07:52:21;;;;;;;7.93;5.28;;;;;;;19.24;72.84;101542.28;5037285;28;20080;-73
2022/07/31 07:54:47;;;;;;;8.00;5.00;;;;;;;19.31;73.29;101541.94;5038443;28;20029;-74
2022/07/31 07:57:16;;;;;;;9.65;5.22;;;;;;;19.37;73.00;101537.22;5030370;28;20029;-72
2022/07/31 07:59:41;;;;;;;7.95;5.32;;;;;;;19.42;72.93;101527.25;5030701;28;20033;-76
2022/07/31 08:02:07;;;;;;;9.60;6.07;;;;;;;19.46;72.35;101530.63;5032547;28;20060;-75
2022/07/31 08:04:32;;;;;;;8.70;5.97;;;;;;;19.51;72.37;101531.22;5033820;28;20104;-75
2022/07/31 08:06:57;;;;;;;7.78;5.57;;;;;;;19.58;72.23;101533.53;5034292;28;20032;-75
2022/07/31 08:09:23;;;;;;;10.30;5.63;;;;;;;19.62;72.07;101533.28;5035612;28;20083;-75
2022/07/31 08:11:49;;;;;;;8.73;6.57;;;;;;;19.67;72.04;101530.38;5033041;28;20531;-75
2022/07/31 08:14:14;;;;;;;8.45;5.93;;;;;;;19.67;71.86;101527.75;5032586;28;20751;-75
2022/07/31 08:16:40;;;;;;;8.50;6.10;;;;;;;19.70;71.49;101527.59;5032151;28;20064;-75
2022/07/31 08:19:05;;;;;;;9.93;6.55;;;;;;;19.70;71.55;101523.19;5037636;28;20476;-76
2022/07/31 08:21:30;;;;;;;7.40;6.10;;;;;;;19.74;72.21;101518.59;5034859;28;20101;-75
2022/07/31 08:23:55;;;;;;;8.00;5.90;;;;;;;19.82;71.85;101519.00;5038396;28;20025;-75
2022/07/31 08:26:21;;;;;;;7.38;6.05;;;;;;;19.94;71.72;101521.97;5032651;28;20032;-75
2022/07/31 08:28:46;;;;;;;8.27;5.80;;;;;;;19.99;71.13;101514.63;5039369;28;20055;-75
2022/07/31 08:31:14;;;;;;;8.18;6.25;;;;;;;20.06;71.80;101518.66;5039087;28;20153;-75
2022/07/31 08:33:39;;;;;;;7.57;5.93;;;;;;;20.12;71.51;101522.72;5032394;28;20032;-75
2022/07/31 08:36:07;;;;;;;7.10;5.75;;;;;;;20.20;71.56;101524.94;5032457;28;20033;-75
2022/07/31 08:38:33;;;;;;;8.20;5.68;;;;;;;20.24;70.78;101529.13;5037067;28;20076;-75
2022/07/31 08:40:58;;;;;;;8.20;5.70;;;;;;;20.27;71.01;101526.31;5039282;28;20119;-76
2022/07/31 08:43:24;;;;;;;8.07;5.75;;;;;;;20.29;69.84;101533.22;5038515;28;20136;-75
2022/07/31 08:45:50;;;;;;;6.88;5.75;;;;;;;20.31;69.87;101528.69;5038367;28;20041;-75
2022/07/31 08:48:16;;;;;;;9.27;5.65;;;;;;;20.36;70.63;101524.94;5037319;28;20041;-76
2022/07/31 08:50:44;;;;;;;7.00;5.45;;;;;;;20.37;69.72;101527.50;5034938;28;20077;-75
2022/07/31 08:53:13;;;;;;;8.25;5.70;;;;;;;20.35;69.91;101523.25;5036687;28;20040;-75
2022/07/31 08:55:42;;;;;;;9.27;5.70;;;;;;;20.33;69.72;101518.03;5032961;28;20121;-75
2022/07/31 08:58:07;;;;;;;6.38;5.10;;;;;;;20.34;70.56;101522.38;5036352;28;20060;-75
2022/07/31 09:00:33;;;;;;;6.50;5.00;;;;;;;20.37;70.30;101522.22;5032660;28;20060;-75
2022/07/31 09:02:58;;;;;;;8.90;5.63;;;;;;;20.41;69.81;101518.47;5035036;28;20116;-75
2022/07/31 09:05:24;;;;;;;7.97;5.10;;;;;;;20.43;69.78;101524.53;5037255;28;20553;-75
2022/07/31 09:07:49;;;;;;;6.20;4.55;;;;;;;20.45;69.66;101524.41;5030975;28;20061;-75
2022/07/31 09:10:22;;;;;;;9.02;5.00;;;;;;;20.43;69.62;101527.16;5036712;28;20468;-75
2022/07/31 09:12:47;;;;;;;8.18;4.72;;;;;;;20.40;69.96;101527.31;5034969;28;20037;-75
2022/07/31 09:15:21;;;;;;;7.68;4.88;;;;;;;20.40;70.20;101526.50;5029252;28;20426;-75
2022/07/31 09:17:46;;;;;;;6.43;4.78;;;;;;;20.40;69.74;101524.69;5034304;28;20480;-75
2022/07/31 09:20:26;;;;;;;5.30;4.32;;;;;;;20.44;69.85;101522.72;5040574;28;20112;-75
2022/07/31 09:23:06;;;;;;;5.97;4.70;;;;;;;20.50;70.24;101516.22;5038635;28;20033;-75
2022/07/31 09:25:32;;;;;;;4.97;4.00;;;;;;;20.58;70.49;101521.94;5038419;28;20250;-72
2022/07/31 09:28:05;;;;;;;6.18;4.40;;;;;;;20.62;69.65;101510.25;5036813;28;20040;-73
2022/07/31 09:30:30;;;;;;;6.43;4.60;;;;;;;20.69;69.80;101511.59;5038286;28;20037;-73
2022/07/31 09:33:20;;;;;;;6.28;4.68;;;;;;;20.76;69.63;101517.41;5037058;28;20504;-75
2022/07/31 09:35:49;;;;;;;6.75;4.63;;;;;;;20.83;70.00;101520.56;5038691;28;20496;-75
2022/07/31 09:38:16;;;;;;;5.35;4.45;;;;;;;20.84;70.21;101512.53;5038754;28;20073;-76
2022/07/31 09:40:45;;;;;;;6.93;4.70;;;;;;;20.88;69.81;101518.47;5039882;28;20102;-75
2022/07/31 09:43:18;;;;;;;5.22;4.38;;;;;;;20.90;69.49;101509.53;5036529;28;20036;-75
2022/07/31 09:45:47;;;;;;;5.57;4.18;;;;;;;20.98;69.57;101500.28;5038830;28;20096;-75
2022/07/31 09:48:13;;;;;;;6.32;4.50;;;;;;;21.06;68.74;101511.25;5042528;28;20040;-75
2022/07/31 09:50:51;;;;;;;5.20;4.30;;;;;;;21.13;68.66;101514.38;5042295;28;20025;-76
2022/07/31 09:53:17;;;;;;;6.38;4.53;;;;;;;21.19;68.78;101509.56;5042760;28;20031;-75
2022/07/31 09:55:51;;;;;;;7.03;4.35;;;;;;;21.22;68.91;101506.75;5040095;28;20108;-75
2022/07/31 09:58:16;;;;;;;7.68;4.63;;;;;;;21.30;68.36;101511.59;5043495;28;21598;-75
2022/07/31 10:00:42;;;;;;;5.80;4.50;;;;;;;21.38;67.56;101513.75;5037019;28;20037;-75
2022/07/31 10:03:08;;;;;;;6.28;4.57;;;;;;;21.45;67.67;101509.78;5040792;28;20032;-75
2022/07/31 10:05:34;;;;;;;5.43;3.95;;;;;;;21.55;68.25;101499.47;5038220;28;20029;-75
2022/07/31 10:08:00;;;;;;;4.93;3.90;;;;;;;21.61;66.84;101498.28;5036567;28;20369;-75
2022/07/31 10:10:28;;;;;;;5.53;4.22;;;;;;;21.66;67.61;101502.34;5037937;28;20475;-75
2022/07/31 10:12:57;;;;;;;5.22;3.80;;;;;;;21.74;67.41;101499.22;5037080;28;20025;-73
2022/07/31 10:15:24;;;;;;;5.53;4.32;;;;;;;21.83;67.02;101500.44;5035700;28;20131;-73
2022/07/31 10:17:51;;;;;;;6.78;4.57;;;;;;;21.92;67.19;101501.66;5035626;28;20025;-73
2022/07/31 10:20:20;;;;;;;6.47;4.30;;;;;;;22.00;65.68;101507.31;5041441;28;20492;-75
2022/07/31 10:22:48;;;;;;;5.00;4.25;;;;;;;22.03;65.99;101498.34;5046238;28;20025;-75
2022/07/31 10:25:24;;;;;;;5.30;4.03;;;;;;;22.04;65.78;101495.56;5038356;28;20028;-76
2022/07/31 10:27:50;;;;;;;6.22;4.00;;;;;;;22.05;65.11;101496.41;5042168;28;20487;-75
2022/07/31 10:30:16;;;;;;;6.53;3.97;;;;;;;22.07;65.55;101495.38;5040273;28;20040;-76
2022/07/31 10:32:42;;;;;;;7.30;4.18;;;;;;;22.08;65.44;101488.28;5039300;28;20041;-72
2022/07/31 10:35:08;;;;;;;4.90;4.00;;;;;;;22.08;65.03;101489.13;5040438;28;20024;-76
2022/07/31 10:37:48;;;;;;;5.60;4.05;;;;;;;22.13;65.72;101489.66;5041220;28;20056;-75
2022/07/31 10:40:24;;;;;;;5.20;3.65;;;;;;;22.19;65.05;101484.94;5040730;28;20099;-73
2022/07/31 10:43:28;;;;;;;5.13;3.60;;;;;;;22.29;65.50;101489.53;5036869;28;20052;-73
2022/07/31 10:45:55;;;;;;;6.07;3.67;;;;;;;22.33;64.33;101482.22;5038936;28;20029;-73
2022/07/31 10:48:21;;;;;;;5.43;3.70;;;;;;;22.41;64.30;101481.72;5038775;28;20060;-75
2022/07/31 10:50:48;;;;;;;5.90;3.83;;;;;;;22.48;64.05;101490.16;5041297;28;20032;-75
2022/07/31 10:53:18;;;;;;;7.30;4.15;;;;;;;22.50;64.15;101478.50;5040854;28;20036;-75
2022/07/31 10:55:44;;;;;;;12.95;4.05;;;;;;;22.60;64.29;101481.41;5040497;28;20029;-73
2022/07/31 10:58:10;;;;;;;5.07;3.30;;;;;;;22.69;63.98;101479.94;5034589;28;20032;-76
2022/07/31 11:00:37;;;;;;;4.85;3.20;;;;;;;22.73;64.08;101474.31;5039715;28;20065;-75
2022/07/31 11:03:20;;;;;;;4.85;3.33;;;;;;;22.78;63.86;101474.00;5040861;28;20118;-75
2022/07/31 11:05:56;;;;;;;4.28;3.38;;;;;;;22.79;63.36;101473.03;5039993;28;20062;-76
2022/07/31 11:08:22;;;;;;;5.55;3.20;;;;;;;22.72;62.56;101469.09;5037613;28;20058;-73
2022/07/31 11:10:55;;;;;;;6.15;3.25;;;;;;;22.68;62.97;101476.41;5038144;28;20120;-74
2022/07/31 11:13:22;;;;;;;8.73;3.45;;;;;;;22.63;63.00;101467.91;5040055;28;20039;-76
2022/07/31 11:15:51;;;;;;;5.03;3.05;;;;;;;22.56;62.99;101462.16;5040447;28;20032;-73
2022/07/31 11:18:19;;;;;;;4.95;3.45;;;;;;;22.50;63.01;101464.38;5032243;28;20091;-74
2022/07/31 11:20:45;;;;;;;4.60;3.17;;;;;;;22.48;63.16;101461.84;5036402;28;20447;-76
2022/07/31 11:23:14;;;;;;;5.72;2.88;;;;;;;22.51;62.86;101471.38;5034999;28;20052;-76